Time;durP1;ratioP1;P1;durP2;ratioP2;P2;SDS_P1;SDS_P2;PMS_P1;PMS_P2;Temp;Humidity;BMP_temperature;BMP_pressure;BME280_temperature;BME280_humidity;BME280_pressure;Samples;Min_cycle;Max_cycle;Signal;HPM_P1;HPM_P2
2023/07/15 00:00:45;;;;;;;8.07;4.50;;;;;;;;;;5102654;27;20149;-75
2023/07/15 00:03:11;;;;;;;8.80;4.60;;;;;;;;;;5086194;27;20126;-76
2023/07/15 00:05:39;;;;;;;9.18;4.93;;;;;;;;;;5085939;27;20042;-75
2023/07/15 00:08:06;;;;;;;6.97;4.75;;;;;;;;;;5104716;27;20047;-75
2023/07/15 00:10:33;;;;;;;9.48;4.63;;;;;;;;;;5086231;27;20043;-75
2023/07/15 00:12:59;;;;;;;10.68;4.68;;;;;;;;;;5103731;27;20034;-75
2023/07/15 00:15:25;;;;;;;6.90;4.78;;;;;;;;;;5085490;27;20410;-75
2023/07/15 00:17:52;;;;;;;9.68;4.75;;;;;;;;;;5086591;27;20139;-75
2023/07/15 00:20:19;;;;;;;10.40;4.68;;;;;;;;;;5103628;27;20129;-75
2023/07/15 00:22:45;;;;;;;5.20;3.90;;;;;;;;;;5064159;27;20048;-75
2023/07/15 00:25:15;;;;;;;6.53;4.55;;;;;;;;;;5080198;27;20144;-74
2023/07/15 00:27:41;;;;;;;8.60;4.65;;;;;;;;;;5083744;27;20050;-76
2023/07/15 00:30:08;;;;;;;6.80;4.40;;;;;;;;;;5079917;27;20092;-75
2023/07/15 00:32:34;;;;;;;10.80;5.22;;;;;;;;;;5069059;27;20047;-75
2023/07/15 00:35:00;;;;;;;8.95;5.10;;;;;;;;;;5081938;27;20476;-75
2023/07/15 00:37:26;;;;;;;9.38;5.15;;;;;;;;;;5082759;27;20043;-75
2023/07/15 00:39:52;;;;;;;7.75;4.38;;;;;;;;;;5100974;27;20160;-75
2023/07/15 00:42:38;;;;;;;5.88;4.57;;;;;;;;;;5099042;27;20660;-75
2023/07/15 00:45:04;;;;;;;7.38;4.65;;;;;;;;;;5084459;27;20050;-75
2023/07/15 00:47:38;;;;;;;7.22;4.07;;;;;;;;;;5084598;27;20062;-74
2023/07/15 00:50:05;;;;;;;5.75;3.92;;;;;;;;;;5084102;28;21891;-75
2023/07/15 00:52:32;;;;;;;8.85;3.88;;;;;;;;;;5083751;27;20167;-75
2023/07/15 00:54:59;;;;;;;5.20;3.50;;;;;;;;;;5081307;28;20159;-76
2023/07/15 00:57:26;;;;;;;7.20;3.65;;;;;;;;;;5084545;28;20050;-76
2023/07/15 00:59:58;;;;;;;8.55;3.88;;;;;;;;;;5067104;28;20149;-75
2023/07/15 01:02:24;;;;;;;11.70;3.92;;;;;;;;;;5100654;27;20039;-75
2023/07/15 01:04:50;;;;;;;9.40;3.70;;;;;;;;;;5079528;28;20307;-75
2023/07/15 01:07:16;;;;;;;6.75;3.53;;;;;;;;;;5081707;28;22080;-74
2023/07/15 01:09:44;;;;;;;9.70;3.53;;;;;;;;;;5081311;28;20647;-76
2023/07/15 01:12:12;;;;;;;5.05;3.42;;;;;;;;;;5099105;27;20497;-75
2023/07/15 01:14:38;;;;;;;7.97;3.22;;;;;;;;;;5083103;28;20058;-75
2023/07/15 01:17:05;;;;;;;6.93;3.60;;;;;;;;;;5084019;28;20047;-76
2023/07/15 01:19:31;;;;;;;7.15;3.78;;;;;;;;;;5081387;28;20475;-75
2023/07/15 01:21:58;;;;;;;8.43;3.97;;;;;;;;;;5102261;27;20054;-76
2023/07/15 01:24:25;;;;;;;7.40;3.58;;;;;;;;;;5081304;28;20130;-76
2023/07/15 01:26:55;;;;;;;5.75;3.72;;;;;;;;;;5077188;28;20074;-76
2023/07/15 01:29:24;;;;;;;10.68;3.92;;;;;;;;;;5098726;27;20130;-75
2023/07/15 01:31:50;;;;;;;5.82;3.40;;;;;;;;;;5098306;27;20040;-75
2023/07/15 01:34:16;;;;;;;6.80;3.28;;;;;;;;;;5098475;27;20046;-75
2023/07/15 01:36:42;;;;;;;5.80;3.83;;;;;;;;;;5079630;28;20085;-75
2023/07/15 01:39:09;;;;;;;6.93;3.55;;;;;;;;;;5059868;28;20039;-80
2023/07/15 01:41:35;;;;;;;6.28;3.80;;;;;;;;;;5061519;28;20486;-80
2023/07/15 01:44:04;;;;;;;8.30;3.65;;;;;;;;;;5077798;28;20054;-81
2023/07/15 01:46:30;;;;;;;5.10;3.28;;;;;;;;;;5079561;28;20043;-80
2023/07/15 01:49:02;;;;;;;7.75;3.80;;;;;;;;;;5099195;27;20051;-80
2023/07/15 01:51:28;;;;;;;5.97;3.60;;;;;;;;;;5083603;28;20159;-81
2023/07/15 01:53:54;;;;;;;6.20;3.88;;;;;;;;;;5085797;27;20047;-80
2023/07/15 01:56:21;;;;;;;5.90;3.38;;;;;;;;;;5081762;28;20093;-80
2023/07/15 01:58:48;;;;;;;6.20;3.50;;;;;;;;;;5101653;27;20058;-80
2023/07/15 02:01:14;;;;;;;7.05;3.60;;;;;;;;;;5085583;27;20047;-81
2023/07/15 02:03:40;;;;;;;5.68;3.22;;;;;;;;;;5085497;27;20039;-79
2023/07/15 02:06:06;;;;;;;6.78;3.00;;;;;;;;;;5087289;27;20538;-80
2023/07/15 02:08:32;;;;;;;9.10;3.50;;;;;;;;;;5108868;27;20046;-80
2023/07/15 02:10:59;;;;;;;7.82;3.22;;;;;;;;;;5090030;27;20062;-81
2023/07/15 02:13:25;;;;;;;7.63;3.30;;;;;;;;;;5086690;27;20498;-80
2023/07/15 02:15:51;;;;;;;5.00;3.10;;;;;;;;;;5102138;27;20047;-81
2023/07/15 02:18:18;;;;;;;5.20;3.65;;;;;;;;;;5105644;27;20039;-80
2023/07/15 02:20:46;;;;;;;5.50;3.17;;;;;;;;;;5085546;27;20039;-81
2023/07/15 02:23:12;;;;;;;7.05;3.33;;;;;;;;;;5085935;27;20070;-80
2023/07/15 02:25:38;;;;;;;3.60;2.80;;;;;;;;;;5085781;27;20134;-81
2023/07/15 02:28:04;;;;;;;5.70;3.22;;;;;;;;;;5084614;27;20039;-81
2023/07/15 02:30:31;;;;;;;4.80;3.30;;;;;;;;;;5102522;27;20063;-81
2023/07/15 02:32:58;;;;;;;7.00;3.42;;;;;;;;;;5079777;27;20035;-81
2023/07/15 02:35:24;;;;;;;5.03;3.50;;;;;;;;;;5082268;27;20054;-81
2023/07/15 02:37:51;;;;;;;7.47;3.17;;;;;;;;;;5087694;27;20391;-81
2023/07/15 02:40:17;;;;;;;7.30;2.92;;;;;;;;;;5070104;27;20046;-81
2023/07/15 02:42:43;;;;;;;5.78;3.70;;;;;;;;;;5102491;27;20529;-81
2023/07/15 02:45:11;;;;;;;6.50;3.40;;;;;;;;;;5084380;27;20181;-81
2023/07/15 02:47:39;;;;;;;5.38;3.40;;;;;;;;;;5079744;27;20549;-82
2023/07/15 02:50:07;;;;;;;6.93;3.10;;;;;;;;;;5082714;27;20051;-81
2023/07/15 02:52:34;;;;;;;4.05;3.40;;;;;;;;;;5084415;27;20104;-82
2023/07/15 02:55:01;;;;;;;5.72;3.40;;;;;;;;;;5082498;27;20259;-80
2023/07/15 02:57:27;;;;;;;6.57;3.33;;;;;;;;;;5083088;27;20043;-81
2023/07/15 02:59:54;;;;;;;6.63;3.45;;;;;;;;;;5060411;27;20047;-81
2023/07/15 03:02:20;;;;;;;4.35;3.10;;;;;;;;;;5085428;27;20475;-80
2023/07/15 03:04:47;;;;;;;7.93;3.45;;;;;;;;;;5082765;27;20042;-80
2023/07/15 03:07:13;;;;;;;7.03;3.65;;;;;;;;;;5066931;27;20043;-80
2023/07/15 03:09:40;;;;;;;4.03;3.35;;;;;;;;;;5083797;27;20130;-80
2023/07/15 03:12:06;;;;;;;4.15;3.25;;;;;;;;;;5103525;27;20558;-80
2023/07/15 03:14:32;;;;;;;6.18;3.17;;;;;;;;;;5082322;27;20539;-80
2023/07/15 03:16:58;;;;;;;5.22;3.17;;;;;;;;;;5083108;27;20119;-80
2023/07/15 03:19:24;;;;;;;5.78;3.40;;;;;;;;;;5084187;27;20133;-81
2023/07/15 03:21:50;;;;;;;4.80;3.22;;;;;;;;;;5107076;27;20547;-81
2023/07/15 03:24:17;;;;;;;9.10;3.65;;;;;;;;;;5085372;27;20105;-81
2023/07/15 03:26:43;;;;;;;6.43;3.80;;;;;;;;;;5104683;27;20047;-80
2023/07/15 03:29:09;;;;;;;6.20;2.97;;;;;;;;;;5086239;27;20039;-81
2023/07/15 03:31:35;;;;;;;5.18;3.40;;;;;;;;;;5073304;27;20114;-80
2023/07/15 03:34:02;;;;;;;6.63;3.67;;;;;;;;;;5086787;27;20822;-81
2023/07/15 03:36:28;;;;;;;4.38;3.25;;;;;;;;;;5084203;27;20162;-80
2023/07/15 03:38:54;;;;;;;4.35;3.05;;;;;;;;;;5084871;27;20046;-80
2023/07/15 03:41:20;;;;;;;5.55;3.28;;;;;;;;;;5083811;27;20035;-80
2023/07/15 03:43:46;;;;;;;8.07;3.20;;;;;;;;;;5086934;27;20093;-80
2023/07/15 03:46:12;;;;;;;7.18;3.30;;;;;;;;;;5083604;27;20055;-81
2023/07/15 03:48:39;;;;;;;6.30;3.25;;;;;;;;;;5071022;27;20059;-80
2023/07/15 03:51:08;;;;;;;6.13;3.10;;;;;;;;;;5102859;27;20050;-81
2023/07/15 03:53:35;;;;;;;5.50;3.53;;;;;;;;;;5080833;27;20069;-80
2023/07/15 03:56:07;;;;;;;6.45;2.95;;;;;;;;;;5084676;27;20050;-80
2023/07/15 03:58:33;;;;;;;7.05;3.40;;;;;;;;;;5103958;27;20039;-80
2023/07/15 04:00:59;;;;;;;5.88;2.90;;;;;;;;;;5093943;27;20035;-80
2023/07/15 04:03:26;;;;;;;6.30;3.38;;;;;;;;;;5085345;27;20042;-79
2023/07/15 04:05:52;;;;;;;8.85;3.42;;;;;;;;;;5109408;27;20486;-80
2023/07/15 04:08:18;;;;;;;5.18;3.17;;;;;;;;;;5080353;27;20049;-79
2023/07/15 04:10:46;;;;;;;5.45;3.53;;;;;;;;;;5119735;27;20786;-81
2023/07/15 04:13:12;;;;;;;8.82;3.80;;;;;;;;;;5098386;27;20057;-79
2023/07/15 04:15:38;;;;;;;7.07;3.20;;;;;;;;;;5089456;27;20043;-79
2023/07/15 04:18:05;;;;;;;5.75;3.08;;;;;;;;;;5105644;27;21868;-80
2023/07/15 04:20:31;;;;;;;4.82;3.63;;;;;;;;;;5086961;27;20598;-79
2023/07/15 04:22:57;;;;;;;4.32;3.25;;;;;;;;;;5103681;27;20051;-79
2023/07/15 04:25:23;;;;;;;5.15;3.15;;;;;;;;;;5067792;27;20499;-80
2023/07/15 04:27:49;;;;;;;6.45;3.20;;;;;;;;;;5072321;27;20065;-80
2023/07/15 04:30:16;;;;;;;11.35;3.50;;;;;;;;;;5086084;27;20131;-79
2023/07/15 04:32:42;;;;;;;8.23;3.50;;;;;;;;;;5078706;27;20058;-81
2023/07/15 04:35:08;;;;;;;6.18;3.35;;;;;;;;;;5085794;27;20039;-80
2023/07/15 04:37:37;;;;;;;7.28;2.90;;;;;;;;;;5100518;27;20162;-81
2023/07/15 04:40:04;;;;;;;5.85;3.20;;;;;;;;;;5082791;27;20116;-80
2023/07/15 04:42:31;;;;;;;6.22;2.90;;;;;;;;;;5083646;27;20039;-81
2023/07/15 04:44:58;;;;;;;5.18;3.20;;;;;;;;;;5102451;27;20055;-80
2023/07/15 04:47:25;;;;;;;8.48;2.80;;;;;;;;;;5082297;27;20055;-81
2023/07/15 04:49:51;;;;;;;7.13;2.75;;;;;;;;;;5081282;27;20174;-81
2023/07/15 04:52:20;;;;;;;4.63;3.08;;;;;;;;;;5102465;27;20126;-81
2023/07/15 04:54:46;;;;;;;6.65;3.28;;;;;;;;;;5054490;27;20163;-80
2023/07/15 04:57:12;;;;;;;6.78;2.90;;;;;;;;;;5087648;28;20881;-80
2023/07/15 04:59:38;;;;;;;5.80;3.00;;;;;;;;;;5086736;27;20050;-81
2023/07/15 05:02:04;;;;;;;6.63;2.92;;;;;;;;;;5105370;27;20050;-80
2023/07/15 05:04:30;;;;;;;8.02;2.97;;;;;;;;;;5084631;27;20051;-79
2023/07/15 05:06:56;;;;;;;5.15;2.70;;;;;;;;;;5086310;28;20044;-80
2023/07/15 05:09:23;;;;;;;4.38;2.83;;;;;;;;;;5087271;28;20725;-80
2023/07/15 05:11:49;;;;;;;8.23;3.15;;;;;;;;;;5087145;27;20070;-81
2023/07/15 05:14:15;;;;;;;4.80;2.60;;;;;;;;;;5090380;27;20723;-79
2023/07/15 05:16:44;;;;;;;4.28;2.83;;;;;;;;;;5076064;28;20036;-80
2023/07/15 05:19:11;;;;;;;3.40;2.58;;;;;;;;;;5096334;27;20597;-79
2023/07/15 05:21:37;;;;;;;5.13;2.70;;;;;;;;;;5101658;27;20047;-80
2023/07/15 05:24:03;;;;;;;4.03;2.60;;;;;;;;;;5101662;27;20039;-80
2023/07/15 05:26:29;;;;;;;5.78;3.00;;;;;;;;;;5083715;27;20178;-79
2023/07/15 05:28:55;;;;;;;7.00;2.95;;;;;;;;;;5089447;28;20035;-80
2023/07/15 05:31:21;;;;;;;11.35;2.80;;;;;;;;;;5085764;28;20050;-81
2023/07/15 05:33:47;;;;;;;6.38;2.80;;;;;;;;;;5069381;27;20051;-80
2023/07/15 05:36:14;;;;;;;6.03;2.95;;;;;;;;;;5084536;27;20043;-80
2023/07/15 05:38:44;;;;;;;7.95;2.95;;;;;;;;;;5085354;27;20062;-80
2023/07/15 05:41:11;;;;;;;7.55;2.75;;;;;;;;;;5075176;27;20047;-79
2023/07/15 05:43:37;;;;;;;4.22;2.50;;;;;;;;;;5073303;27;20039;-81
2023/07/15 05:46:03;;;;;;;6.40;3.38;;;;;;;;;;5103433;27;20048;-80
2023/07/15 05:48:29;;;;;;;6.95;2.80;;;;;;;;;;5092433;27;20055;-79
2023/07/15 05:50:59;;;;;;;9.82;2.72;;;;;;;;;;5110474;27;22211;-80
2023/07/15 05:53:25;;;;;;;4.88;2.80;;;;;;;;;;5102984;27;20027;-81
2023/07/15 05:55:51;;;;;;;9.20;3.10;;;;;;;;;;5094963;27;20051;-81
2023/07/15 05:58:17;;;;;;;3.88;2.80;;;;;;;;;;5093746;27;20043;-80
2023/07/15 06:00:43;;;;;;;7.20;2.83;;;;;;;;;;5108293;27;20035;-81
2023/07/15 06:03:10;;;;;;;5.07;3.03;;;;;;;;;;5068677;27;20130;-82
2023/07/15 06:05:36;;;;;;;4.90;3.03;;;;;;;;;;5101550;27;20061;-81
2023/07/15 06:08:02;;;;;;;7.25;3.05;;;;;;;;;;5108755;27;20084;-81
2023/07/15 06:10:28;;;;;;;8.00;3.10;;;;;;;;;;5085967;27;20043;-81
2023/07/15 06:12:54;;;;;;;8.20;3.00;;;;;;;;;;5088471;27;20437;-80
2023/07/15 06:15:20;;;;;;;4.45;2.70;;;;;;;;;;5055924;27;20043;-76
2023/07/15 06:17:46;;;;;;;6.72;2.90;;;;;;;;;;5081661;27;20173;-75
2023/07/15 06:20:13;;;;;;;5.13;2.90;;;;;;;;;;5098934;27;20039;-75
2023/07/15 06:22:39;;;;;;;6.25;2.78;;;;;;;;;;5064647;27;20130;-76
2023/07/15 06:25:05;;;;;;;7.05;2.83;;;;;;;;;;5099180;27;20047;-76
2023/07/15 06:27:31;;;;;;;5.10;3.00;;;;;;;;;;5092756;27;20047;-76
2023/07/15 06:29:57;;;;;;;6.68;2.85;;;;;;;;;;5078455;27;20731;-76
2023/07/15 06:32:23;;;;;;;5.85;3.28;;;;;;;;;;5078576;27;20042;-83
2023/07/15 06:34:49;;;;;;;4.32;2.70;;;;;;;;;;5086637;27;20503;-79
2023/07/15 06:37:15;;;;;;;5.60;2.22;;;;;;;;;;5080037;27;20035;-80
2023/07/15 06:39:41;;;;;;;6.25;2.75;;;;;;;;;;5080755;27;20427;-80
2023/07/15 06:42:08;;;;;;;6.85;2.88;;;;;;;;;;5098014;27;20047;-79
2023/07/15 06:44:34;;;;;;;8.52;2.83;;;;;;;;;;5082349;27;20043;-81
2023/07/15 06:47:00;;;;;;;5.20;2.53;;;;;;;;;;5068000;27;20059;-79
2023/07/15 06:49:27;;;;;;;7.10;2.78;;;;;;;;;;5102695;27;20667;-79
2023/07/15 06:51:53;;;;;;;6.18;2.80;;;;;;;;;;5104918;27;20039;-79
2023/07/15 06:54:19;;;;;;;8.45;2.67;;;;;;;;;;5084096;27;20112;-79
2023/07/15 06:56:45;;;;;;;6.18;2.80;;;;;;;;;;5082510;27;20036;-79
2023/07/15 06:59:11;;;;;;;5.75;2.47;;;;;;;;;;5101595;27;20544;-80
2023/07/15 07:01:37;;;;;;;5.95;2.40;;;;;;;;;;5081870;27;20084;-80
2023/07/15 07:04:03;;;;;;;8.40;2.00;;;;;;;;;;5099476;27;20035;-79
2023/07/15 07:06:29;;;;;;;5.68;2.47;;;;;;;;;;5102228;27;20420;-79
2023/07/15 07:08:55;;;;;;;5.88;2.30;;;;;;;;;;5086197;27;20039;-80
2023/07/15 07:11:22;;;;;;;4.03;2.45;;;;;;;;;;5099203;27;20047;-80
2023/07/15 07:13:48;;;;;;;8.02;3.60;;;;;;;;;;5062945;27;20051;-81
2023/07/15 07:16:14;;;;;;;3.35;1.95;;;;;;;;;;5077936;27;20091;-75
2023/07/15 07:18:40;;;;;;;3.70;2.35;;;;;;;;;;5098401;27;20487;-80
2023/07/15 07:21:06;;;;;;;5.55;2.20;;;;;;;;;;5099037;27;20437;-80
2023/07/15 07:23:32;;;;;;;5.47;2.08;;;;;;;;;;5082802;27;20046;-82
2023/07/15 07:26:00;;;;;;;6.00;2.08;;;;;;;;;;5101718;27;20575;-81
2023/07/15 07:28:43;;;;;;;4.10;2.03;;;;;;;;;;5058138;27;20035;-81
2023/07/15 07:31:09;;;;;;;5.13;2.33;;;;;;;;;;5094256;27;20043;-77
2023/07/15 07:33:36;;;;;;;5.32;2.20;;;;;;;;;;5076362;27;20078;-76
2023/07/15 07:36:02;;;;;;;4.70;2.13;;;;;;;;;;5079894;27;20054;-76
2023/07/15 07:38:28;;;;;;;8.43;2.85;;;;;;;;;;5075153;27;20039;-76
2023/07/15 07:40:55;;;;;;;2.53;1.95;;;;;;;;;;5101809;27;21654;-76
2023/07/15 07:43:21;;;;;;;5.47;2.33;;;;;;;;;;5069745;27;20047;-76
2023/07/15 07:45:47;;;;;;;3.17;1.85;;;;;;;;;;5101047;27;20043;-76
2023/07/15 07:48:13;;;;;;;9.60;1.88;;;;;;;;;;5084839;27;20134;-76
2023/07/15 07:50:39;;;;;;;7.93;2.70;;;;;;;;;;5063847;27;20057;-76
2023/07/15 07:53:05;;;;;;;5.68;2.33;;;;;;;;;;5103669;27;21967;-76
2023/07/15 07:55:31;;;;;;;3.03;1.80;;;;;;;;;;5068210;27;20057;-75
2023/07/15 07:57:57;;;;;;;6.40;2.38;;;;;;;;;;5084994;27;20126;-76
2023/07/15 08:00:23;;;;;;;7.05;2.10;;;;;;;;;;5100058;27;20042;-76
2023/07/15 08:02:49;;;;;;;3.90;2.03;;;;;;;;;;5084136;27;20391;-76
2023/07/15 08:05:15;;;;;;;4.05;1.95;;;;;;;;;;5080071;27;20077;-76
2023/07/15 08:07:42;;;;;;;2.60;1.80;;;;;;;;;;5085914;27;20058;-77
2023/07/15 08:10:08;;;;;;;2.28;1.90;;;;;;;;;;5084180;27;20594;-76
2023/07/15 08:12:34;;;;;;;2.88;2.00;;;;;;;;;;5062777;27;20189;-76
2023/07/15 08:15:00;;;;;;;2.33;1.55;;;;;;;;;;5078303;27;20065;-77
2023/07/15 08:17:26;;;;;;;10.00;2.17;;;;;;;;;;5097855;27;20121;-76
2023/07/15 08:19:52;;;;;;;5.45;1.90;;;;;;;;;;5077611;27;20054;-76
2023/07/15 08:22:18;;;;;;;3.72;1.58;;;;;;;;;;5078236;27;20034;-76
2023/07/15 08:24:44;;;;;;;3.53;1.77;;;;;;;;;;5077198;27;20779;-76
2023/07/15 08:27:10;;;;;;;2.05;1.60;;;;;;;;;;5077693;27;20044;-76
2023/07/15 08:29:37;;;;;;;4.05;1.77;;;;;;;;;;5093251;27;20577;-77
2023/07/15 08:32:03;;;;;;;5.43;1.92;;;;;;;;;;5094967;27;20039;-76
2023/07/15 08:34:29;;;;;;;6.05;2.33;;;;;;;;;;5077990;27;20255;-77
2023/07/15 08:36:55;;;;;;;3.78;2.05;;;;;;;;;;5079694;27;20040;-77
2023/07/15 08:39:21;;;;;;;3.22;1.63;;;;;;;;;;5074795;27;20046;-76
2023/07/15 08:41:47;;;;;;;4.40;1.85;;;;;;;;;;5075312;27;20426;-77
2023/07/15 08:44:14;;;;;;;3.97;1.70;;;;;;;;;;5097039;27;20659;-76
2023/07/15 08:46:42;;;;;;;3.15;1.85;;;;;;;;;;5098764;27;20189;-77
2023/07/15 08:49:08;;;;;;;3.72;1.80;;;;;;;;;;5079303;27;20096;-77
2023/07/15 08:51:35;;;;;;;3.55;1.63;;;;;;;;;;5079892;28;20056;-78
2023/07/15 08:54:03;;;;;;;3.60;1.80;;;;;;;;;;5081074;27;20054;-76
2023/07/15 08:56:34;;;;;;;2.58;1.83;;;;;;;;;;5096401;27;20041;-77
2023/07/15 08:59:00;;;;;;;2.83;1.45;;;;;;;;;;5098226;27;20402;-77
2023/07/15 09:01:26;;;;;;;5.55;1.45;;;;;;;;;;5078674;28;20067;-77
2023/07/15 09:03:52;;;;;;;2.35;1.63;;;;;;;;;;5056577;28;20140;-77
2023/07/15 09:06:19;;;;;;;2.45;1.90;;;;;;;;;;5055675;28;20039;-73
2023/07/15 09:08:50;;;;;;;3.10;1.67;;;;;;;;;;5073618;27;20428;-75
2023/07/15 09:11:16;;;;;;;4.10;1.70;;;;;;;;;;5096500;27;20050;-73
2023/07/15 09:13:44;;;;;;;3.13;1.77;;;;;;;;;;5081382;27;20101;-74
2023/07/15 09:16:10;;;;;;;3.33;1.95;;;;;;;;;;5095870;27;20044;-74
2023/07/15 09:18:40;;;;;;;4.85;1.75;;;;;;;;;;5079812;27;20428;-74
2023/07/15 09:21:09;;;;;;;3.42;1.83;;;;;;;;;;5095919;27;20111;-74
2023/07/15 09:23:38;;;;;;;4.25;2.08;;;;;;;;;;5082652;27;20092;-74
2023/07/15 09:26:05;;;;;;;3.83;1.90;;;;;;;;;;5098570;27;20066;-74
2023/07/15 09:28:31;;;;;;;12.10;2.17;;;;;;;;;;5079071;27;20127;-74
2023/07/15 09:30:59;;;;;;;4.18;2.10;;;;;;;;;;5081933;27;20039;-73
2023/07/15 09:33:38;;;;;;;1.75;1.40;;;;;;;;;;5077724;27;20139;-73
2023/07/15 09:36:06;;;;;;;1.33;1.13;;;;;;;;;;5074728;27;20479;-73
2023/07/15 09:38:34;;;;;;;2.97;1.38;;;;;;;;;;5096792;27;20042;-75
2023/07/15 09:41:01;;;;;;;2.55;1.70;;;;;;;;;;5084423;27;20042;-75
2023/07/15 09:43:46;;;;;;;3.03;1.27;;;;;;;;;;5103380;27;20090;-75
2023/07/15 09:46:16;;;;;;;3.45;1.40;;;;;;;;;;5105046;27;20117;-75
2023/07/15 09:48:43;;;;;;;1.65;1.10;;;;;;;;;;5103968;27;20055;-75
2023/07/15 09:51:13;;;;;;;2.55;1.40;;;;;;;;;;5101866;27;20051;-74
2023/07/15 09:53:43;;;;;;;2.88;1.73;;;;;;;;;;5080693;27;20046;-74
2023/07/15 09:56:10;;;;;;;1.40;1.27;;;;;;;;;;5082605;27;20168;-75
2023/07/15 09:58:37;;;;;;;2.72;1.60;;;;;;;;;;5075697;27;20047;-75
2023/07/15 10:01:04;;;;;;;4.03;1.50;;;;;;;;;;5099839;27;20041;-74
2023/07/15 10:03:38;;;;;;;2.50;1.67;;;;;;;;;;5081396;27;20166;-73
2023/07/15 10:06:06;;;;;;;2.63;1.60;;;;;;;;;;5099059;27;20100;-74
2023/07/15 10:08:32;;;;;;;1.92;1.63;;;;;;;;;;5096888;27;21856;-74
2023/07/15 10:10:58;;;;;;;6.35;2.00;;;;;;;;;;5095617;27;20035;-74
2023/07/15 10:13:24;;;;;;;3.42;2.00;;;;;;;;;;5096080;27;20125;-73
2023/07/15 10:15:50;;;;;;;2.55;1.65;;;;;;;;;;5063498;27;20044;-73
2023/07/15 10:18:17;;;;;;;3.60;1.50;;;;;;;;;;5098367;27;20046;-74
2023/07/15 10:20:47;;;;;;;4.18;1.75;;;;;;;;;;5063440;27;20035;-75
2023/07/15 10:23:14;;;;;;;5.45;2.33;;;;;;;;;;5078551;27;21983;-74
2023/07/15 10:25:43;;;;;;;5.55;1.83;;;;;;;;;;5060452;27;20039;-74
2023/07/15 10:28:13;;;;;;;6.00;2.08;;;;;;;;;;5095621;27;20118;-74
2023/07/15 10:30:40;;;;;;;3.17;1.80;;;;;;;;;;5080529;27;20592;-74
2023/07/15 10:33:07;;;;;;;2.72;2.05;;;;;;;;;;5083874;27;20074;-74
2023/07/15 10:35:46;;;;;;;4.10;2.13;;;;;;;;;;5075707;27;20487;-74
2023/07/15 10:38:26;;;;;;;8.88;2.15;;;;;;;;;;5098702;27;20076;-74
2023/07/15 10:40:52;;;;;;;3.17;1.90;;;;;;;;;;5083789;27;20927;-74
2023/07/15 10:43:22;;;;;;;3.50;1.98;;;;;;;;;;5079891;27;20117;-74
2023/07/15 10:45:54;;;;;;;2.40;2.20;;;;;;;;;;5079727;27;20150;-74
2023/07/15 10:48:21;;;;;;;2.58;1.80;;;;;;;;;;5082620;27;20059;-75
2023/07/15 10:50:48;;;;;;;2.45;1.92;;;;;;;;;;5102830;27;20051;-75
2023/07/15 10:53:20;;;;;;;2.17;1.75;;;;;;;;;;5083600;27;20182;-75
2023/07/15 10:55:46;;;;;;;2.13;1.52;;;;;;;;;;5082659;27;20043;-75
2023/07/15 10:58:12;;;;;;;3.10;1.73;;;;;;;;;;5078823;27;20155;-75
2023/07/15 11:00:39;;;;;;;3.05;1.90;;;;;;;;;;5098510;27;20174;-75
2023/07/15 11:03:05;;;;;;;2.55;1.67;;;;;;;;;;5079879;27;20043;-76
2023/07/15 11:05:31;;;;;;;3.70;1.90;;;;;;;;;;5078862;27;20043;-74
2023/07/15 11:07:58;;;;;;;7.55;2.03;;;;;;;;;;5063158;27;20051;-73
2023/07/15 11:10:33;;;;;;;6.25;2.05;;;;;;;;;;5098933;27;20072;-75
2023/07/15 11:13:15;;;;;;;4.40;1.90;;;;;;;;;;5081617;27;20103;-76
2023/07/15 11:15:42;;;;;;;5.10;1.80;;;;;;;;;;5063747;27;20050;-75
2023/07/15 11:18:15;;;;;;;8.02;2.00;;;;;;;;;;5098231;27;20130;-75
2023/07/15 11:20:45;;;;;;;4.15;1.80;;;;;;;;;;5081168;27;20054;-75
2023/07/15 11:23:11;;;;;;;7.20;2.15;;;;;;;;;;5100476;27;20181;-75
2023/07/15 11:25:37;;;;;;;2.97;1.90;;;;;;;;;;5096266;27;20054;-74
2023/07/15 11:28:04;;;;;;;3.72;1.70;;;;;;;;;;5096726;27;20031;-75
2023/07/15 11:30:36;;;;;;;6.60;1.95;;;;;;;;;;5097512;27;20092;-75
2023/07/15 11:33:03;;;;;;;2.97;1.50;;;;;;;;;;5063981;27;20050;-74
2023/07/15 11:35:33;;;;;;;2.60;1.10;;;;;;;;;;5099391;27;20726;-73
2023/07/15 11:38:07;;;;;;;2.67;1.73;;;;;;;;;;5091991;27;20069;-73
2023/07/15 11:40:35;;;;;;;7.45;1.80;;;;;;;;;;5094432;27;21834;-74
2023/07/15 11:43:01;;;;;;;1.30;1.20;;;;;;;;;;5092828;27;20039;-75
2023/07/15 11:45:27;;;;;;;1.65;1.33;;;;;;;;;;5102510;27;20047;-75
2023/07/15 11:47:54;;;;;;;2.78;1.25;;;;;;;;;;5101334;27;20052;-74
2023/07/15 11:50:24;;;;;;;3.38;1.40;;;;;;;;;;5086003;27;20660;-75
2023/07/15 11:52:50;;;;;;;4.90;1.33;;;;;;;;;;5101270;27;20059;-74
2023/07/15 11:55:24;;;;;;;2.72;1.67;;;;;;;;;;5101256;27;20142;-75
2023/07/15 11:57:50;;;;;;;9.52;1.60;;;;;;;;;;5084396;27;20130;-75
2023/07/15 12:00:30;;;;;;;4.53;1.90;;;;;;;;;;5082326;27;20135;-74
2023/07/15 12:02:56;;;;;;;7.68;1.77;;;;;;;;;;5067863;27;20039;-75
2023/07/15 12:05:23;;;;;;;2.15;1.75;;;;;;;;;;5080371;27;20716;-75
2023/07/15 12:07:53;;;;;;;5.78;2.45;;;;;;;;;;5066901;27;20585;-75
2023/07/15 12:10:20;;;;;;;4.68;1.55;;;;;;;;;;5080956;27;20077;-75
2023/07/15 12:12:46;;;;;;;2.63;1.55;;;;;;;;;;5085498;27;20058;-75
2023/07/15 12:15:14;;;;;;;4.53;1.40;;;;;;;;;;5086515;27;20039;-74
2023/07/15 12:17:41;;;;;;;2.60;1.42;;;;;;;;;;5071086;27;20043;-75
2023/07/15 12:20:07;;;;;;;1.30;1.20;;;;;;;;;;5101900;27;20084;-75
2023/07/15 12:22:34;;;;;;;3.35;1.45;;;;;;;;;;5099101;27;20118;-75
2023/07/15 12:25:00;;;;;;;5.53;1.65;;;;;;;;;;5101259;27;20039;-74
2023/07/15 12:27:26;;;;;;;3.33;1.60;;;;;;;;;;5070239;27;20150;-74
2023/07/15 12:29:52;;;;;;;4.47;1.50;;;;;;;;;;5098972;27;20257;-74
2023/07/15 12:32:18;;;;;;;2.95;1.60;;;;;;;;;;5082062;27;20112;-74
2023/07/15 12:34:44;;;;;;;3.03;1.80;;;;;;;;;;5083168;27;20048;-74
2023/07/15 12:37:10;;;;;;;6.88;2.75;;;;;;;;;;5085058;27;20735;-75
2023/07/15 12:39:36;;;;;;;4.32;2.30;;;;;;;;;;5089078;27;20043;-76
2023/07/15 12:42:04;;;;;;;8.88;2.05;;;;;;;;;;5080338;27;20692;-75
2023/07/15 12:44:30;;;;;;;4.55;2.10;;;;;;;;;;5080747;27;20051;-74
2023/07/15 12:46:56;;;;;;;3.42;1.70;;;;;;;;;;5082957;28;20074;-74
2023/07/15 12:49:22;;;;;;;2.78;1.48;;;;;;;;;;5083160;27;20054;-74
2023/07/15 12:51:48;;;;;;;4.15;1.50;;;;;;;;;;5089365;27;20048;-75
2023/07/15 12:54:14;;;;;;;2.35;1.65;;;;;;;;;;5070050;27;20051;-75
2023/07/15 12:56:40;;;;;;;1.63;1.42;;;;;;;;;;5079991;27;20228;-75
2023/07/15 12:59:06;;;;;;;4.38;1.40;;;;;;;;;;5102903;27;20093;-78
2023/07/15 13:01:32;;;;;;;3.78;1.70;;;;;;;;;;5083079;27;20042;-78
2023/07/15 13:03:59;;;;;;;1.48;1.23;;;;;;;;;;5085178;27;20153;-78
2023/07/15 13:06:25;;;;;;;3.65;1.65;;;;;;;;;;5087425;27;20040;-77
2023/07/15 13:08:51;;;;;;;4.03;1.63;;;;;;;;;;5054229;27;20070;-78
2023/07/15 13:11:17;;;;;;;6.78;1.70;;;;;;;;;;5083604;27;20764;-78
2023/07/15 13:13:43;;;;;;;3.13;1.63;;;;;;;;;;5099668;27;20035;-77
2023/07/15 13:16:09;;;;;;;2.00;1.20;;;;;;;;;;5065099;27;20559;-78
2023/07/15 13:18:35;;;;;;;3.80;1.90;;;;;;;;;;5079568;27;20050;-78
2023/07/15 13:21:01;;;;;;;4.07;1.92;;;;;;;;;;5063772;27;20084;-79
2023/07/15 13:23:27;;;;;;;2.90;1.30;;;;;;;;;;5064527;28;20511;-79
2023/07/15 13:25:53;;;;;;;4.88;1.80;;;;;;;;;;5065413;27;20050;-79
2023/07/15 13:28:19;;;;;;;3.47;1.30;;;;;;;;;;5098836;27;20051;-78
2023/07/15 13:30:45;;;;;;;5.22;1.58;;;;;;;;;;5079716;27;20038;-78
2023/07/15 13:33:13;;;;;;;2.53;1.60;;;;;;;;;;5080633;27;20039;-79
2023/07/15 13:35:39;;;;;;;9.02;1.50;;;;;;;;;;5096325;27;20630;-80
2023/07/15 13:38:05;;;;;;;2.47;1.48;;;;;;;;;;5083348;27;20043;-79
2023/07/15 13:40:31;;;;;;;2.53;1.30;;;;;;;;;;5085570;27;20063;-79
2023/07/15 13:42:57;;;;;;;3.35;1.40;;;;;;;;;;5087946;27;20072;-80
2023/07/15 13:45:23;;;;;;;1.77;1.67;;;;;;;;;;5104582;27;20054;-80
2023/07/15 13:47:52;;;;;;;2.33;1.48;;;;;;;;;;5060676;27;20798;-80
2023/07/15 13:50:18;;;;;;;3.95;1.40;;;;;;;;;;5086579;27;20047;-80
2023/07/15 13:52:44;;;;;;;4.22;1.40;;;;;;;;;;5105572;27;20035;-79
2023/07/15 13:55:10;;;;;;;2.65;1.33;;;;;;;;;;5067150;28;20616;-79
2023/07/15 13:57:37;;;;;;;3.92;1.55;;;;;;;;;;5067878;27;20047;-80
2023/07/15 14:00:04;;;;;;;3.33;1.33;;;;;;;;;;5109759;27;20039;-80
2023/07/15 14:02:30;;;;;;;4.13;1.40;;;;;;;;;;5091839;27;20096;-80
2023/07/15 14:04:56;;;;;;;4.90;1.38;;;;;;;;;;5092273;27;20058;-80
2023/07/15 14:07:22;;;;;;;2.47;1.17;;;;;;;;;;5090269;27;20145;-80
2023/07/15 14:09:48;;;;;;;2.35;1.10;;;;;;;;;;5106567;27;20035;-79
2023/07/15 14:12:14;;;;;;;2.20;1.08;;;;;;;;;;5074013;27;20119;-80
2023/07/15 14:14:40;;;;;;;5.05;1.30;;;;;;;;;;5110420;27;20054;-79
2023/07/15 14:17:07;;;;;;;2.63;1.65;;;;;;;;;;5090934;27;20209;-79
2023/07/15 14:19:35;;;;;;;3.33;1.50;;;;;;;;;;5107775;27;20039;-79
2023/07/15 14:22:02;;;;;;;1.95;1.20;;;;;;;;;;5092396;27;20051;-79
2023/07/15 14:24:28;;;;;;;2.60;1.40;;;;;;;;;;5109875;27;20085;-79
2023/07/15 14:26:54;;;;;;;3.30;1.50;;;;;;;;;;5072124;27;20103;-79
2023/07/15 14:29:21;;;;;;;6.75;1.25;;;;;;;;;;5089860;27;20080;-79
2023/07/15 14:31:47;;;;;;;1.77;1.10;;;;;;;;;;5074056;27;20130;-79
2023/07/15 14:34:13;;;;;;;4.88;1.27;;;;;;;;;;5069477;27;20118;-79
2023/07/15 14:36:40;;;;;;;2.80;1.40;;;;;;;;;;5088490;27;20051;-79
2023/07/15 14:39:06;;;;;;;2.05;1.40;;;;;;;;;;5110552;27;20084;-79
2023/07/15 14:41:32;;;;;;;3.63;1.63;;;;;;;;;;5089753;27;20663;-79